Time;durP1;ratioP1;P1;durP2;ratioP2;P2;SDS_P1;SDS_P2;PMS_P1;PMS_P2;Temp;Humidity;BMP_temperature;BMP_pressure;BME280_temperature;BME280_humidity;BME280_pressure;Samples;Min_cycle;Max_cycle;Signal;HPM_P1;HPM_P2
2023/04/11 00:03:21;;;;;;;;;;;;;;;7.86;44.31;101626.44;10521566;28;19916;-82
2023/04/11 00:08:23;;;;;;;;;;;;;;;7.39;44.18;101611.94;10550895;28;20382;-82
2023/04/11 00:13:25;;;;;;;;;;;;;;;7.19;45.03;101616.91;10538686;28;19920;-83
2023/04/11 00:18:27;;;;;;;;;;;;;;;7.34;45.62;101608.25;10523647;28;19927;-83
2023/04/11 00:23:29;;;;;;;;;;;;;;;7.11;45.38;101603.56;10538276;28;19928;-83
2023/04/11 00:28:31;;;;;;;;;;;;;;;7.81;44.89;101599.00;10533361;28;19916;-82
2023/04/11 00:33:33;;;;;;;;;;;;;;;7.37;45.51;101594.97;10509905;28;19943;-82
2023/04/11 00:38:35;;;;;;;;;;;;;;;7.15;45.41;101585.69;10528864;28;19919;-82
2023/04/11 00:43:37;;;;;;;;;;;;;;;6.77;45.89;101586.91;10539391;28;19924;-83
2023/04/11 00:48:40;;;;;;;;;;;;;;;6.34;47.21;101593.38;10538476;28;19924;-81
2023/04/11 00:53:42;;;;;;;;;;;;;;;5.94;47.62;101593.03;10514899;28;19928;-81
2023/04/11 00:58:44;;;;;;;;;;;;;;;5.72;48.63;101594.50;10559820;28;19927;-83
2023/04/11 01:03:47;;;;;;;;;;;;;;;5.65;49.59;101589.13;10504270;28;19973;-83
2023/04/11 01:08:49;;;;;;;;;;;;;;;5.57;49.47;101584.00;10520082;28;19927;-82
2023/04/11 01:13:51;;;;;;;;;;;;;;;5.34;49.28;101579.16;10567143;28;20291;-82
2023/04/11 01:18:53;;;;;;;;;;;;;;;5.29;50.46;101580.91;10554548;28;19919;-81
2023/04/11 01:23:57;;;;;;;;;;;;;;;5.60;50.10;101578.09;10532813;28;19920;-81
2023/04/11 01:28:59;;;;;;;;;;;;;;;5.32;50.71;101564.94;10485553;28;19924;-83
2023/04/11 01:34:02;;;;;;;;;;;;;;;5.19;51.35;101573.22;10516778;28;19920;-82
2023/04/11 01:39:05;;;;;;;;;;;;;;;5.07;51.34;101567.69;10517009;28;20494;-80
2023/04/11 01:44:08;;;;;;;;;;;;;;;5.03;51.85;101560.19;10543284;28;19921;-82
2023/04/11 01:49:14;;;;;;;;;;;;;;;4.90;52.01;101565.75;10528482;28;19927;-87
2023/04/11 01:54:17;;;;;;;;;;;;;;;4.97;52.32;101556.47;10533097;28;20422;-83
2023/04/11 01:59:19;;;;;;;;;;;;;;;4.96;52.84;101549.38;10556422;28;19920;-83
2023/04/11 02:04:21;;;;;;;;;;;;;;;4.89;51.63;101543.16;10542407;28;19923;-83
2023/04/11 02:09:23;;;;;;;;;;;;;;;5.02;52.67;101534.03;10534424;28;19928;-82
2023/04/11 02:14:25;;;;;;;;;;;;;;;4.97;52.38;101537.44;10518541;28;20338;-82
2023/04/11 02:19:27;;;;;;;;;;;;;;;5.12;51.44;101532.47;10485203;28;19982;-80
2023/04/11 02:24:29;;;;;;;;;;;;;;;5.21;52.44;101532.22;10506092;28;19917;-82
2023/04/11 02:29:30;;;;;;;;;;;;;;;5.11;52.58;101528.09;10504583;28;20027;-84
2023/04/11 02:34:32;;;;;;;;;;;;;;;5.29;52.07;101535.47;10546408;28;19946;-82
2023/04/11 02:39:34;;;;;;;;;;;;;;;5.68;52.06;101530.66;10523297;28;19920;-82
2023/04/11 02:44:36;;;;;;;;;;;;;;;6.23;50.64;101517.81;10483921;28;19919;-83
2023/04/11 02:49:42;;;;;;;;;;;;;;;6.85;49.48;101518.38;10515016;28;20380;-83
2023/04/11 02:54:47;;;;;;;;;;;;;;;7.21;48.89;101506.41;10502265;28;19924;-82
2023/04/11 02:59:49;;;;;;;;;;;;;;;6.59;49.26;101505.97;10505528;28;19928;-83
2023/04/11 03:04:57;;;;;;;;;;;;;;;6.02;50.42;101505.53;10526983;28;19916;-83
2023/04/11 03:09:59;;;;;;;;;;;;;;;5.60;51.71;101514.63;10497770;28;19925;-81
2023/04/11 03:15:01;;;;;;;;;;;;;;;5.61;51.83;101502.69;10484533;28;19931;-80
2023/04/11 03:20:06;;;;;;;;;;;;;;;5.51;52.54;101500.47;10522555;28;19922;-84
2023/04/11 03:25:09;;;;;;;;;;;;;;;5.76;52.59;101500.41;10496059;28;19943;-82
2023/04/11 03:30:12;;;;;;;;;;;;;;;6.47;51.14;101496.13;10541083;28;19922;-83
2023/04/11 03:35:19;;;;;;;;;;;;;;;6.24;51.69;101494.97;10512516;28;19928;-81
2023/04/11 03:40:23;;;;;;;;;;;;;;;7.36;49.89;101495.00;10493550;28;19920;-81
2023/04/11 03:45:31;;;;;;;;;;;;;;;8.26;47.16;101501.78;10476513;28;19917;-81
2023/04/11 03:50:38;;;;;;;;;;;;;;;9.03;46.21;101482.91;10496475;28;20083;-82
2023/04/11 03:55:40;;;;;;;;;;;;;;;9.57;45.23;101483.94;10527311;28;19924;-82
2023/04/11 04:00:45;;;;;;;;;;;;;;;10.57;42.77;101479.03;10474461;28;19919;-81
2023/04/11 04:05:47;;;;;;;;;;;;;;;11.07;42.03;101477.81;10537523;28;20278;-84
2023/04/11 04:10:50;;;;;;;;;;;;;;;11.43;41.77;101479.69;10501952;28;19924;-81
2023/04/11 04:15:52;;;;;;;;;;;;;;;11.25;41.46;101473.81;10547171;28;19943;-84
2023/04/11 04:20:59;;;;;;;;;;;;;;;10.86;42.19;101474.09;10493821;28;19938;-85
2023/04/11 04:26:02;;;;;;;;;;;;;;;10.99;41.94;101468.16;10539561;28;19920;-86
2023/04/11 04:31:07;;;;;;;;;;;;;;;10.92;41.88;101469.44;10508387;28;20397;-85
2023/04/11 04:36:17;;;;;;;;;;;;;;;11.06;42.73;101456.94;10499560;28;19975;-85
2023/04/11 04:41:21;;;;;;;;;;;;;;;11.03;42.86;101458.28;10479334;28;20114;-83
2023/04/11 04:46:35;;;;;;;;;;;;;;;11.29;42.34;101451.06;10450429;28;19920;-84
2023/04/11 04:51:39;;;;;;;;;;;;;;;11.32;42.29;101453.25;10468071;28;19924;-82
2023/04/11 04:56:42;;;;;;;;;;;;;;;11.35;42.37;101440.91;10478364;28;19917;-81
2023/04/11 05:02:11;;;;;;;;;;;;;;;11.68;41.41;101437.75;10502133;28;19920;-85
2023/04/11 05:07:14;;;;;;;;;;;;;;;11.68;41.98;101447.94;10514401;28;20418;-83
2023/04/11 05:12:25;;;;;;;;;;;;;;;12.14;41.87;101435.16;10496994;28;19920;-83
2023/04/11 05:17:28;;;;;;;;;;;;;;;12.20;41.59;101438.78;10513600;28;19923;-84
2023/04/11 05:22:31;;;;;;;;;;;;;;;12.20;41.41;101441.53;10513163;28;19931;-82
2023/04/11 05:27:33;;;;;;;;;;;;;;;12.72;40.69;101432.19;10513666;28;19924;-82
2023/04/11 05:32:35;;;;;;;;;;;;;;;13.69;39.27;101421.78;10438182;28;19931;-84
2023/04/11 05:37:38;;;;;;;;;;;;;;;13.83;38.27;101428.34;10469908;28;19947;-83
2023/04/11 05:42:41;;;;;;;;;;;;;;;14.15;36.80;101425.13;10513910;28;19924;-82
2023/04/11 05:47:43;;;;;;;;;;;;;;;14.20;36.98;101416.78;10548337;28;19931;-83
2023/04/11 05:52:45;;;;;;;;;;;;;;;14.56;36.24;101424.84;10544118;28;20264;-82
2023/04/11 05:57:46;;;;;;;;;;;;;;;14.50;35.55;101414.97;10530251;28;19920;-82
2023/04/11 06:02:49;;;;;;;;;;;;;;;14.55;35.38;101414.91;10497797;28;19920;-82
2023/04/11 06:07:51;;;;;;;;;;;;;;;14.65;34.27;101409.31;10529701;28;20388;-83
2023/04/11 06:12:53;;;;;;;;;;;;;;;14.64;35.00;101421.47;10460839;28;20364;-83
2023/04/11 06:17:55;;;;;;;;;;;;;;;15.06;32.80;101410.56;10487807;28;20027;-85
2023/04/11 06:23:00;;;;;;;;;;;;;;;15.56;31.89;101405.56;10470696;28;19960;-83
2023/04/11 06:28:02;;;;;;;;;;;;;;;16.13;31.01;101408.41;10469246;28;19927;-85
2023/04/11 06:33:04;;;;;;;;;;;;;;;16.43;30.64;101401.59;10487749;28;19921;-84
2023/04/11 06:38:06;;;;;;;;;;;;;;;16.63;30.35;101394.88;10498667;28;19980;-83
2023/04/11 06:43:07;;;;;;;;;;;;;;;16.46;30.06;101399.03;10512436;28;19968;-82
2023/04/11 06:48:11;;;;;;;;;;;;;;;16.53;30.21;101390.34;10475213;28;19921;-84
2023/04/11 06:53:13;;;;;;;;;;;;;;;16.63;30.06;101394.88;10497412;28;19927;-82
2023/04/11 06:58:15;;;;;;;;;;;;;;;16.92;29.06;101392.72;10524846;28;20322;-84
2023/04/11 07:03:18;;;;;;;;;;;;;;;16.87;29.42;101392.81;10487208;28;19927;-83
2023/04/11 07:08:20;;;;;;;;;;;;;;;17.26;28.87;101377.66;10486668;28;19927;-83
2023/04/11 07:13:22;;;;;;;;;;;;;;;17.46;28.48;101375.28;10469370;28;19925;-84
2023/04/11 07:18:26;;;;;;;;;;;;;;;17.45;28.08;101370.03;10478607;28;19923;-83
2023/04/11 07:23:28;;;;;;;;;;;;;;;17.51;28.01;101366.03;10471249;28;20320;-84
2023/04/11 07:28:30;;;;;;;;;;;;;;;17.91;27.21;101357.97;10486771;28;19921;-84
2023/04/11 07:33:33;;;;;;;;;;;;;;;18.24;27.42;101351.06;10486905;28;19922;-84
2023/04/11 07:38:36;;;;;;;;;;;;;;;18.58;26.90;101342.16;10491910;28;19927;-83
2023/04/11 07:43:38;;;;;;;;;;;;;;;18.53;27.01;101344.22;10476823;28;19925;-84
2023/04/11 07:48:40;;;;;;;;;;;;;;;18.32;26.75;101336.41;10476478;28;19924;-83
2023/04/11 07:53:42;;;;;;;;;;;;;;;17.54;27.54;101348.78;10493374;28;19931;-84
2023/04/11 07:58:44;;;;;;;;;;;;;;;18.60;26.83;101333.47;10476076;28;19920;-84
2023/04/11 08:03:46;;;;;;;;;;;;;;;18.22;26.16;101336.69;10493737;28;20411;-83
2023/04/11 08:08:48;;;;;;;;;;;;;;;18.90;25.67;101329.88;10486637;28;19916;-84
2023/04/11 08:13:50;;;;;;;;;;;;;;;19.92;23.93;101326.06;10505974;28;19921;-83
2023/04/11 08:18:52;;;;;;;;;;;;;;;20.09;23.35;101321.31;10503882;28;19927;-84
2023/04/11 08:23:54;;;;;;;;;;;;;;;19.77;23.29;101333.75;10520794;28;20002;-84
2023/04/11 08:28:56;;;;;;;;;;;;;;;20.53;22.80;101319.31;10524467;28;19920;-82
2023/04/11 08:33:58;;;;;;;;;;;;;;;20.99;22.80;101314.88;10506115;28;20035;-82
2023/04/11 08:39:00;;;;;;;;;;;;;;;20.93;22.07;101311.47;10484604;28;19921;-83
2023/04/11 08:44:02;;;;;;;;;;;;;;;20.87;22.23;101314.78;10502262;28;20312;-82
2023/04/11 08:49:04;;;;;;;;;;;;;;;19.37;23.09;101309.91;10502210;28;20431;-84
2023/04/11 08:54:06;;;;;;;;;;;;;;;18.71;23.89;101298.72;10503318;28;20043;-82
2023/04/11 08:59:08;;;;;;;;;;;;;;;18.27;24.33;101300.41;10538798;28;20360;-83
2023/04/11 09:04:10;;;;;;;;;;;;;;;19.14;23.85;101289.75;10513546;28;19920;-84
2023/04/11 09:09:26;;;;;;;;;;;;;;;19.22;23.67;101283.38;10528182;28;20042;-83
2023/04/11 09:14:28;;;;;;;;;;;;;;;18.46;25.08;101285.50;10546234;28;19920;-83
2023/04/11 09:19:31;;;;;;;;;;;;;;;17.58;25.64;101290.69;10490575;28;19920;-83
2023/04/11 09:24:33;;;;;;;;;;;;;;;16.48;27.35;101283.19;10473018;28;19928;-83
2023/04/11 09:29:44;;;;;;;;;;;;;;;16.02;28.63;101274.88;10472886;28;19928;-82
2023/04/11 09:34:45;;;;;;;;;;;;;;;15.93;28.65;101277.50;10489552;28;19920;-82
2023/04/11 09:39:56;;;;;;;;;;;;;;;15.61;29.70;101269.13;10489103;28;19960;-83
2023/04/11 09:44:58;;;;;;;;;;;;;;;15.83;29.10;101266.59;10455630;28;20115;-82
2023/04/11 09:49:59;;;;;;;;;;;;;;;15.65;29.94;101264.69;10471363;28;19920;-83
2023/04/11 09:55:03;;;;;;;;;;;;;;;15.71;29.84;101252.41;10470934;28;19931;-84
2023/04/11 10:00:13;;;;;;;;;;;;;;;15.83;29.75;101243.66;10517291;28;19931;-84
2023/04/11 10:05:16;;;;;;;;;;;;;;;15.47;29.94;101230.34;10496342;28;19920;-82
2023/04/11 10:10:19;;;;;;;;;;;;;;;15.98;29.34;101230.38;10495049;28;19923;-84
2023/04/11 10:15:21;;;;;;;;;;;;;;;15.85;29.71;101220.06;10442836;28;19923;-84
2023/04/11 10:20:42;;;;;;;;;;;;;;;15.87;29.60;101223.34;10488201;28;19916;-82
2023/04/11 10:25:49;;;;;;;;;;;;;;;15.88;29.74;101216.69;10470698;28;19928;-83
2023/04/11 10:30:50;;;;;;;;;;;;;;;15.61;30.49;101219.34;10470475;28;19921;-84
2023/04/11 10:36:04;;;;;;;;;;;;;;;15.55;30.30;101215.81;10472876;28;19940;-83
2023/04/11 10:41:15;;;;;;;;;;;;;;;15.45;30.97;101199.41;10488675;28;19927;-83
2023/04/11 10:46:18;;;;;;;;;;;;;;;15.61;30.21;101202.75;10469936;28;20388;-83
2023/04/11 10:51:26;;;;;;;;;;;;;;;15.94;30.19;101196.09;10469704;28;20336;-83
2023/04/11 10:56:47;;;;;;;;;;;;;;;15.85;29.97;101189.63;10469506;28;19932;-82
2023/04/11 11:01:53;;;;;;;;;;;;;;;15.84;30.06;101185.22;10487658;28;19921;-83
2023/04/11 11:06:55;;;;;;;;;;;;;;;15.75;30.43;101188.97;10509469;28;20378;-83
2023/04/11 11:12:07;;;;;;;;;;;;;;;15.78;30.14;101189.19;10531222;28;19927;-83
2023/04/11 11:17:12;;;;;;;;;;;;;;;15.60;30.30;101178.97;10514186;28;19920;-83
2023/04/11 11:22:15;;;;;;;;;;;;;;;15.64;29.93;101182.81;10507061;28;19927;-83
2023/04/11 11:27:20;;;;;;;;;;;;;;;15.90;29.81;101172.94;10536239;28;19920;-82
2023/04/11 11:32:28;;;;;;;;;;;;;;;16.14;29.82;101174.69;10484748;28;20447;-82
2023/04/11 11:37:30;;;;;;;;;;;;;;;16.14;29.10;101175.56;10529568;28;19927;-82
2023/04/11 11:42:32;;;;;;;;;;;;;;;16.05;29.81;101162.72;10517697;28;19920;-83
2023/04/11 11:47:43;;;;;;;;;;;;;;;16.29;29.01;101157.81;10517803;28;19926;-82
2023/04/11 11:52:47;;;;;;;;;;;;;;;16.59;28.90;101168.28;10535616;28;19920;-81
2023/04/11 11:57:49;;;;;;;;;;;;;;;16.35;28.71;101156.59;10534664;28;19920;-83
2023/04/11 12:02:52;;;;;;;;;;;;;;;16.26;28.83;101158.41;10499886;28;20343;-82
2023/04/11 12:07:54;;;;;;;;;;;;;;;16.37;28.53;101153.50;10483161;28;20230;-82
2023/04/11 12:12:56;;;;;;;;;;;;;;;16.53;27.41;101149.31;10516490;28;19916;-82
2023/04/11 12:17:58;;;;;;;;;;;;;;;16.36;27.46;101147.16;10517653;28;20010;-82
2023/04/11 12:23:00;;;;;;;;;;;;;;;16.39;27.47;101146.53;10515171;28;19927;-83
2023/04/11 12:28:06;;;;;;;;;;;;;;;16.45;27.35;101138.94;10533202;28;19920;-83
2023/04/11 12:33:07;;;;;;;;;;;;;;;16.20;27.19;101141.09;10545292;28;20031;-81
2023/04/11 12:38:10;;;;;;;;;;;;;;;16.20;27.74;101148.56;10537668;28;19927;-83
2023/04/11 12:43:12;;;;;;;;;;;;;;;16.04;28.32;101134.19;10518887;28;19920;-82
2023/04/11 12:48:17;;;;;;;;;;;;;;;16.00;28.50;101133.19;10532561;28;20383;-82
2023/04/11 12:53:19;;;;;;;;;;;;;;;15.98;28.86;101124.38;10515464;28;19920;-82
2023/04/11 12:58:21;;;;;;;;;;;;;;;15.67;30.18;101130.44;10513004;28;19920;-83
2023/04/11 13:03:23;;;;;;;;;;;;;;;15.18;30.75;101128.19;10498849;28;19925;-83
2023/04/11 13:08:26;;;;;;;;;;;;;;;15.08;31.76;101120.03;10490355;28;19920;-84
2023/04/11 13:13:27;;;;;;;;;;;;;;;15.01;31.74;101114.88;10487838;28;19927;-83
2023/04/11 13:18:29;;;;;;;;;;;;;;;14.74;32.54;101106.44;10492649;28;19931;-84
2023/04/11 13:23:31;;;;;;;;;;;;;;;14.26;32.38;101112.00;10471763;28;19921;-83
2023/04/11 13:28:37;;;;;;;;;;;;;;;14.07;32.88;101111.94;10500941;28;19920;-83
2023/04/11 13:33:39;;;;;;;;;;;;;;;14.16;32.75;101104.66;10530438;28;19932;-84
2023/04/11 13:38:41;;;;;;;;;;;;;;;13.93;33.34;101102.72;10529886;28;20295;-82
2023/04/11 13:43:43;;;;;;;;;;;;;;;13.72;33.08;101107.63;10499946;28;19924;-83
2023/04/11 13:48:45;;;;;;;;;;;;;;;13.50;33.03;101096.22;10455112;28;19921;-82
2023/04/11 13:53:47;;;;;;;;;;;;;;;13.47;33.34;101096.81;10454232;28;19916;-83
2023/04/11 13:58:50;;;;;;;;;;;;;;;13.42;33.36;101094.94;10494806;28;19920;-84
2023/04/11 14:03:52;;;;;;;;;;;;;;;13.26;33.89;101096.19;10507733;28;19920;-84
2023/04/11 14:08:54;;;;;;;;;;;;;;;13.17;33.34;101095.09;10514424;28;19986;-82
2023/04/11 14:13:56;;;;;;;;;;;;;;;13.19;33.78;101092.91;10504628;28;19930;-84
2023/04/11 14:18:57;;;;;;;;;;;;;;;13.02;33.84;101092.47;10522496;28;20409;-85
2023/04/11 14:24:01;;;;;;;;;;;;;;;12.95;33.88;101093.59;10478281;28;19920;-83
2023/04/11 14:29:03;;;;;;;;;;;;;;;12.84;33.34;101097.56;10509731;28;19916;-82
2023/04/11 14:34:06;;;;;;;;;;;;;;;12.72;33.45;101088.81;10492623;28;20427;-83
2023/04/11 14:39:08;;;;;;;;;;;;;;;12.67;33.52;101086.91;10528888;28;20028;-83
2023/04/11 14:44:10;;;;;;;;;;;;;;;12.67;33.68;101097.94;10529698;28;20039;-84
2023/04/11 14:49:13;;;;;;;;;;;;;;;12.53;33.52;101094.16;10531462;28;19950;-84
2023/04/11 14:54:15;;;;;;;;;;;;;;;12.59;34.36;101078.41;10520563;28;20379;-83
2023/04/11 14:59:17;;;;;;;;;;;;;;;12.52;34.13;101086.16;10523865;28;19920;-84
2023/04/11 15:04:19;;;;;;;;;;;;;;;12.44;34.21;101081.25;10489343;28;19998;-85
2023/04/11 15:09:21;;;;;;;;;;;;;;;12.34;34.79;101082.94;10504384;28;19922;-87
2023/04/11 15:14:28;;;;;;;;;;;;;;;11.99;35.05;101089.41;10518325;28;19947;-85
2023/04/11 15:19:30;;;;;;;;;;;;;;;11.74;35.77;101092.19;10478534;28;19920;-83
2023/04/11 15:24:32;;;;;;;;;;;;;;;11.47;35.45;101098.00;10484550;28;19927;-84
2023/04/11 15:29:35;;;;;;;;;;;;;;;11.28;36.08;101083.13;10489805;28;20391;-83
2023/04/11 15:34:39;;;;;;;;;;;;;;;11.12;35.68;101083.16;10525094;28;19928;-88
2023/04/11 15:39:40;;;;;;;;;;;;;;;10.96;34.92;101075.19;10468644;28;19924;-86
2023/04/11 15:44:43;;;;;;;;;;;;;;;11.07;35.36;101074.06;10468937;28;20307;-82
2023/04/11 15:49:45;;;;;;;;;;;;;;;10.90;35.60;101073.50;10506609;28;19916;-82
2023/04/11 15:54:47;;;;;;;;;;;;;;;10.80;34.91;101072.41;10512468;28;19970;-82
2023/04/11 15:59:49;;;;;;;;;;;;;;;10.54;37.14;101081.66;10485038;28;19927;-88
2023/04/11 16:04:54;;;;;;;;;;;;;;;10.59;37.61;101078.97;10475773;28;19930;-84
2023/04/11 16:10:00;;;;;;;;;;;;;;;10.44;37.50;101085.22;10503020;28;19919;-93
2023/04/11 16:15:05;;;;;;;;;;;;;;;10.36;38.21;101091.22;10470116;28;19928;-89
2023/04/11 16:20:08;;;;;;;;;;;;;;;10.12;38.80;101090.00;10495983;28;19916;-86
2023/04/11 16:25:11;;;;;;;;;;;;;;;9.73;39.80;101093.06;10482616;28;19925;-87
2023/04/11 16:30:13;;;;;;;;;;;;;;;9.62;39.70;101081.22;10507899;28;19916;-87
2023/04/11 16:35:15;;;;;;;;;;;;;;;9.57;39.58;101083.09;10518926;28;19923;-87
2023/04/11 16:40:17;;;;;;;;;;;;;;;9.51;40.83;101081.41;10504292;28;19920;-86
2023/04/11 16:45:19;;;;;;;;;;;;;;;9.36;40.88;101099.38;10525325;28;19920;-85
2023/04/11 16:50:21;;;;;;;;;;;;;;;9.21;41.83;101085.56;10479897;28;19936;-84
2023/04/11 16:55:24;;;;;;;;;;;;;;;9.12;41.65;101095.34;10503068;28;20330;-83
2023/04/11 17:00:50;;;;;;;;;;;;;;;9.03;42.51;101089.53;10523607;28;19927;-92
2023/04/11 17:06:17;;;;;;;;;;;;;;;9.10;42.06;101089.31;10490922;28;19920;-91
2023/04/11 17:11:19;;;;;;;;;;;;;;;8.85;42.33;101097.25;10526984;28;19916;-84
2023/04/11 17:16:21;;;;;;;;;;;;;;;8.68;42.67;101092.75;10494954;28;20020;-84
2023/04/11 17:21:48;;;;;;;;;;;;;;;8.57;44.00;101090.97;10515548;28;20405;-85
2023/04/11 17:26:51;;;;;;;;;;;;;;;8.41;44.03;101083.66;10525747;28;19927;-86
2023/04/11 17:31:59;;;;;;;;;;;;;;;8.30;44.30;101095.53;10535935;28;20276;-90
2023/04/11 17:43:02;;;;;;;;;;;;;;;7.94;45.08;101095.06;10496806;28;19942;-87
2023/04/11 17:48:06;;;;;;;;;;;;;;;7.81;44.65;101088.06;10510091;28;19924;-89
2023/04/11 17:53:08;;;;;;;;;;;;;;;7.68;45.21;101087.59;10487258;28;19931;-90
2023/04/11 17:58:10;;;;;;;;;;;;;;;7.63;44.96;101084.78;10507874;28;20455;-87
2023/04/11 18:03:13;;;;;;;;;;;;;;;7.59;45.23;101081.72;10480643;28;20291;-86
2023/04/11 18:08:15;;;;;;;;;;;;;;;7.53;45.73;101075.38;10485195;28;20387;-87
2023/04/11 18:13:18;;;;;;;;;;;;;;;7.56;45.15;101088.53;10505072;28;20341;-86
2023/04/11 18:18:20;;;;;;;;;;;;;;;7.44;45.91;101095.97;10518411;28;19920;-86
2023/04/11 18:23:22;;;;;;;;;;;;;;;7.41;45.49;101082.81;10511813;28;19963;-86
2023/04/11 18:28:25;;;;;;;;;;;;;;;7.44;45.89;101093.25;10510416;28;19967;-86
2023/04/11 18:33:27;;;;;;;;;;;;;;;7.49;46.00;101093.34;10519327;28;19931;-87
2023/04/11 18:38:31;;;;;;;;;;;;;;;7.45;45.86;101078.50;10535684;28;19968;-90
2023/04/11 18:43:33;;;;;;;;;;;;;;;7.43;45.62;101079.84;10473317;28;19921;-89
2023/04/11 18:48:35;;;;;;;;;;;;;;;7.44;45.81;101082.31;10503224;28;19923;-85
2023/04/11 18:53:38;;;;;;;;;;;;;;;7.51;45.96;101079.44;10498745;28;19920;-87
2023/04/11 18:58:41;;;;;;;;;;;;;;;7.50;45.83;101070.41;10512932;28;20298;-86
2023/04/11 19:03:43;;;;;;;;;;;;;;;7.56;45.18;101071.31;10492235;28;20429;-86
2023/04/11 19:08:51;;;;;;;;;;;;;;;7.58;45.70;101069.16;10507278;28;19916;-87
2023/04/11 19:13:53;;;;;;;;;;;;;;;7.61;45.67;101065.09;10527502;28;19916;-85
2023/04/11 19:18:56;;;;;;;;;;;;;;;7.70;44.78;101069.06;10486450;28;19917;-84
2023/04/11 19:23:58;;;;;;;;;;;;;;;7.76;44.73;101070.75;10519551;28;19919;-86
2023/04/11 19:29:00;;;;;;;;;;;;;;;7.79;44.99;101073.00;10529974;28;19931;-86
2023/04/11 19:34:03;;;;;;;;;;;;;;;7.86;44.94;101079.94;10547714;28;20344;-84
2023/04/11 19:39:05;;;;;;;;;;;;;;;7.83;44.88;101066.78;10553066;28;19934;-88
2023/04/11 19:44:07;;;;;;;;;;;;;;;7.80;46.74;101059.06;10516186;28;20236;-85
2023/04/11 19:49:09;;;;;;;;;;;;;;;7.75;46.94;101069.94;10509321;28;19922;-86
2023/04/11 19:54:11;;;;;;;;;;;;;;;7.77;46.65;101064.22;10523567;28;20269;-85
2023/04/11 19:59:13;;;;;;;;;;;;;;;7.76;46.05;101063.41;10518115;28;19959;-86
2023/04/11 20:04:16;;;;;;;;;;;;;;;7.92;46.40;101067.16;10524479;28;19924;-86
2023/04/11 20:09:19;;;;;;;;;;;;;;;7.91;45.67;101075.63;10508765;28;19924;-85
2023/04/11 20:14:21;;;;;;;;;;;;;;;7.83;45.38;101071.44;10531287;28;20429;-87
2023/04/11 20:19:27;;;;;;;;;;;;;;;7.71;46.36;101073.44;10496276;28;19938;-86
2023/04/11 20:24:33;;;;;;;;;;;;;;;7.78;45.50;101074.06;10511297;28;19926;-87
2023/04/11 20:29:37;;;;;;;;;;;;;;;7.74;45.12;101081.13;10525601;28;20392;-90
2023/04/11 20:34:40;;;;;;;;;;;;;;;7.66;45.48;101073.38;10474303;28;19924;-87
2023/04/11 20:39:42;;;;;;;;;;;;;;;7.65;46.19;101082.66;10462971;28;20069;-85
2023/04/11 20:44:44;;;;;;;;;;;;;;;7.59;46.16;101069.97;10512142;28;19920;-86
2023/04/11 20:49:48;;;;;;;;;;;;;;;7.61;45.95;101071.38;10494472;28;19923;-86
2023/04/11 20:54:51;;;;;;;;;;;;;;;7.58;45.51;101080.06;10495563;28;19923;-86
2023/04/11 20:59:53;;;;;;;;;;;;;;;7.57;45.75;101065.59;10519667;28;19944;-86
2023/04/11 21:04:55;;;;;;;;;;;;;;;7.62;45.65;101074.94;10526305;28;19924;-86
2023/04/11 21:09:57;;;;;;;;;;;;;;;7.63;46.10;101082.03;10541857;28;19941;-88
2023/04/11 21:15:00;;;;;;;;;;;;;;;7.69;45.95;101083.78;10519272;28;19978;-88
2023/04/11 21:20:08;;;;;;;;;;;;;;;7.65;45.95;101088.94;10512040;28;20092;-86
2023/04/11 21:25:12;;;;;;;;;;;;;;;7.57;46.28;101081.97;10516883;28;20272;-87
2023/04/11 21:30:14;;;;;;;;;;;;;;;7.48;45.95;101088.97;10512661;28;19927;-87
2023/04/11 21:35:16;;;;;;;;;;;;;;;7.33;47.35;101088.72;10513251;28;19916;-84
2023/04/11 21:40:18;;;;;;;;;;;;;;;7.14;50.45;101088.13;10521520;28;19928;-84
2023/04/11 21:45:21;;;;;;;;;;;;;;;6.93;49.03;101114.22;10516770;28;19927;-82
2023/04/11 21:50:24;;;;;;;;;;;;;;;7.29;48.36;101114.84;10542119;28;20307;-85
2023/04/11 21:55:26;;;;;;;;;;;;;;;7.52;47.73;101095.56;10482753;28;19927;-84
2023/04/11 22:00:29;;;;;;;;;;;;;;;7.37;48.15;101065.28;10512259;28;19915;-87
2023/04/11 22:05:31;;;;;;;;;;;;;;;7.15;48.81;101070.69;10496649;28;19924;-88
2023/04/11 22:10:41;;;;;;;;;;;;;;;6.92;48.93;101077.09;10526521;28;19928;-87
2023/04/11 22:15:43;;;;;;;;;;;;;;;6.84;48.68;101073.97;10515459;28;19916;-83
2023/04/11 22:20:45;;;;;;;;;;;;;;;6.76;48.58;101086.06;10501297;28;19920;-85
2023/04/11 22:25:52;;;;;;;;;;;;;;;6.69;49.12;101076.41;10493091;28;19946;-87
2023/04/11 22:30:56;;;;;;;;;;;;;;;6.69;49.26;101088.13;10481818;28;19921;-86
2023/04/11 22:35:58;;;;;;;;;;;;;;;6.69;49.54;101082.69;10502863;28;19939;-86
2023/04/11 22:41:00;;;;;;;;;;;;;;;6.74;49.30;101080.03;10490232;28;19920;-84
2023/04/11 22:46:02;;;;;;;;;;;;;;;6.71;48.95;101077.81;10504800;28;20428;-84
2023/04/11 22:51:04;;;;;;;;;;;;;;;6.63;48.45;101070.88;10506754;28;19927;-85
2023/04/11 22:56:07;;;;;;;;;;;;;;;6.70;48.90;101065.25;10501356;28;19916;-85
2023/04/11 23:01:10;;;;;;;;;;;;;;;6.71;48.17;101061.44;10518820;28;19920;-85
2023/04/11 23:06:12;;;;;;;;;;;;;;;6.78;47.98;101064.88;10559787;28;19921;-86
2023/04/11 23:11:14;;;;;;;;;;;;;;;6.85;47.58;101056.50;10524404;28;19960;-86
2023/04/11 23:16:17;;;;;;;;;;;;;;;6.92;46.69;101068.91;10561288;28;19977;-84
2023/04/11 23:21:18;;;;;;;;;;;;;;;6.90;46.90;101062.88;10538918;28;19951;-86
2023/04/11 23:26:21;;;;;;;;;;;;;;;6.90;47.36;101064.78;10555625;28;19947;-87
2023/04/11 23:31:23;;;;;;;;;;;;;;;6.82;46.59;101048.84;10532326;28;19927;-82
2023/04/11 23:36:26;;;;;;;;;;;;;;;6.69;46.06;101052.69;10530744;28;20422;-84
2023/04/11 23:41:29;;;;;;;;;;;;;;;6.62;46.10;101046.56;10531092;28;20382;-85
2023/04/11 23:46:30;;;;;;;;;;;;;;;6.57;46.02;101043.72;10530402;28;19920;-83
2023/04/11 23:51:32;;;;;;;;;;;;;;;6.49;46.25;101046.88;10553502;28;19920;-85
2023/04/11 23:56:35;;;;;;;;;;;;;;;6.35;46.53;101049.88;10529389;28;19916;-83
